Lichtervelde, Belgium
Current Conditions -  °F | °C
As of 2:20 AM on Thursday 27 Nov 2014 (Local Time) from EBOS Reporting Station
Moderate Fog Moderate Fog  
Wind Chill: 48°   Ceiling: 100
Heat Index: 48°   Visibility: 0.5mi
Dew Point: 48°   Wind: 3mph
Humidity: 100%   Direction: 130°SE
Pressure: 29.77"   Gusts: NA
Location:  51.03°N, 3.15°E
Report Text: EBOS 270120Z 13003KT 0800 R08/1900N R26/P2000N FG BKN001 BKN002 09/09 Q1008 TEMPO 0500 FG
Loading
Personal Weather Stations






























Interactive Weather Map New forecast layout! Learn more

10-Day Weather Forecast

Advertisements
Track Severe Weather on mobile